Current Weather

Jackson County-Reynolds Fld

Jackson, Michigan (KJXN)

Report from: Wednesday, May 29, 2024 6:56 PM EDT
Current time: Wednesday, May 29, 2024 7:41 PM EDT

Nearby weather – Weather history – Daily summaries
Weather forecast

Temperature18.3°C (64.9°F)
Dew point8.3°C (46.9°F)
Winds 8 kts (4.1 m/s, 9.2 mph) Northeast (40°)
Visibility10 mi. (16.1 km)
Clouds Ceiling: Broken clouds 9,000 ft. (2,743 m)
Altimeter30.12 in.Hg (1020 mB)
Relative humidity52 %
Density altitude318 ft. (97 m)
Sea-level pressure102.0 kPa (1020 mB, 30.12 in.Hg)
Remarks Automated weather observing station with precipitation discriminator
Flight conditions Visual Meteorological Conditions
Raw dataKJXN 292256Z 04008KT 10SM BKN090 18/08 A3012 RMK AO2 SLP200 T01830083
An error has occurred. This application may no longer respond until reloaded. Reload 🗙